Time;durP1;ratioP1;P1;durP2;ratioP2;P2;SDS_P1;SDS_P2;PMS_P1;PMS_P2;Temp;Humidity;BMP_temperature;BMP_pressure;BME280_temperature;BME280_humidity;BME280_pressure;Samples;Min_cycle;Max_cycle;Signal;HPM_P1;HPM_P2
2022/06/30 00:00:11;;;;;;;10.30;5.95;;;;;;;25.89;52.65;99338.47;4318841;33;34952;-83
2022/06/30 00:02:58;;;;;;;8.85;5.18;;;;;;;25.88;52.53;99336.91;4319725;33;34766;-82
2022/06/30 00:05:43;;;;;;;10.48;5.10;;;;;;;26.00;51.94;99333.50;4307648;33;34902;-83
2022/06/30 00:08:30;;;;;;;9.65;5.47;;;;;;;25.44;53.57;99335.81;4321043;33;34538;-83
2022/06/30 00:11:16;;;;;;;9.40;4.93;;;;;;;25.35;54.17;99336.34;4320100;33;33626;-82
2022/06/30 00:14:03;;;;;;;10.95;5.28;;;;;;;25.52;53.50;99336.53;4324090;33;34780;-82
2022/06/30 00:16:49;;;;;;;8.85;5.37;;;;;;;25.45;53.84;99340.25;4317205;33;35987;-83
2022/06/30 00:19:36;;;;;;;10.35;5.32;;;;;;;25.57;54.30;99345.28;4322572;33;34714;-82
2022/06/30 00:22:22;;;;;;;11.18;5.43;;;;;;;25.39;55.08;99341.91;4317396;33;34198;-83
2022/06/30 00:25:08;;;;;;;8.15;5.10;;;;;;;25.10;55.37;99345.00;4322642;33;34588;-83
2022/06/30 00:27:55;;;;;;;10.95;5.43;;;;;;;25.13;55.12;99344.19;4337804;33;34904;-82
2022/06/30 00:30:41;;;;;;;8.15;4.90;;;;;;;24.26;58.01;99348.13;4340081;33;34494;-82
2022/06/30 00:33:27;;;;;;;9.15;5.10;;;;;;;25.07;55.59;99347.84;4338195;33;35273;-83
2022/06/30 00:36:14;;;;;;;7.68;4.80;;;;;;;23.71;61.47;99346.84;4320375;33;34682;-81
2022/06/30 00:39:00;;;;;;;9.93;5.50;;;;;;;24.55;58.84;99354.31;4340391;33;35117;-82
2022/06/30 00:41:47;;;;;;;8.00;5.12;;;;;;;23.16;65.59;99346.63;4324888;33;34667;-83
2022/06/30 00:44:33;;;;;;;8.18;5.30;;;;;;;23.21;65.35;99354.59;4335445;33;33011;-83
2022/06/30 00:47:20;;;;;;;7.78;4.90;;;;;;;23.96;62.44;99343.09;4325735;33;34185;-83
2022/06/30 00:50:07;;;;;;;6.87;4.80;;;;;;;23.67;63.48;99340.44;4338637;33;35565;-83
2022/06/30 00:52:54;;;;;;;7.37;4.50;;;;;;;23.35;64.66;99344.16;4335559;33;33609;-83
2022/06/30 00:55:43;;;;;;;8.38;4.70;;;;;;;23.97;61.83;99336.31;4326663;33;33683;-83
2022/06/30 00:58:34;;;;;;;6.97;4.93;;;;;;;24.16;59.53;99338.59;4335604;33;34593;-82
2022/06/30 01:01:22;;;;;;;9.75;5.18;;;;;;;24.40;60.26;99339.59;4324891;33;34880;-82
2022/06/30 01:04:09;;;;;;;11.63;5.72;;;;;;;24.28;60.86;99339.28;4324765;33;34491;-83
2022/06/30 01:06:55;;;;;;;8.60;4.78;;;;;;;24.25;61.21;99340.94;4337562;33;34088;-83
2022/06/30 01:12:47;;;;;;;8.60;5.00;;;;;;;22.50;68.21;99344.28;4327997;33;34205;-82
2022/06/30 01:15:34;;;;;;;8.07;4.82;;;;;;;23.27;64.98;99347.38;4337018;33;34718;-83
2022/06/30 01:18:21;;;;;;;8.73;4.68;;;;;;;22.97;66.36;99342.25;4323052;33;35101;-82
2022/06/30 01:21:07;;;;;;;8.18;4.90;;;;;;;23.24;65.02;99339.81;4326610;33;34731;-82
2022/06/30 01:23:54;;;;;;;7.10;4.47;;;;;;;23.70;62.69;99334.06;4325240;33;35971;-82
2022/06/30 01:26:41;;;;;;;6.90;4.87;;;;;;;22.78;66.76;99335.88;4336022;33;35378;-83
2022/06/30 01:29:27;;;;;;;7.30;4.62;;;;;;;22.16;68.70;99345.41;4336443;33;34490;-83
2022/06/30 01:32:14;;;;;;;9.43;5.37;;;;;;;22.87;65.83;99344.63;4325506;33;34609;-83
2022/06/30 01:35:00;;;;;;;8.27;4.70;;;;;;;23.43;63.50;99349.75;4315459;33;35253;-83
2022/06/30 01:37:53;;;;;;;8.02;4.82;;;;;;;22.95;64.92;99351.06;4340907;33;34573;-83
2022/06/30 01:40:39;;;;;;;8.48;4.90;;;;;;;23.63;61.40;99338.87;4340740;33;34720;-83
2022/06/30 01:43:26;;;;;;;7.70;5.05;;;;;;;23.21;62.38;99341.41;4327385;33;34233;-83
2022/06/30 01:46:13;;;;;;;8.38;5.00;;;;;;;23.27;63.09;99348.16;4326286;33;35906;-82
2022/06/30 01:48:59;;;;;;;8.15;5.18;;;;;;;22.84;65.52;99348.25;4339014;33;35157;-84
2022/06/30 01:51:45;;;;;;;9.82;5.45;;;;;;;23.42;64.13;99357.31;4339139;33;32813;-83
2022/06/30 01:54:32;;;;;;;8.70;5.55;;;;;;;22.81;66.32;99351.84;4336908;33;35709;-84
2022/06/30 01:57:18;;;;;;;8.85;5.30;;;;;;;22.74;67.39;99368.63;4326255;33;35008;-83
2022/06/30 02:00:11;;;;;;;10.88;5.12;;;;;;;23.31;63.35;99367.75;4337616;33;34179;-83
2022/06/30 02:02:57;;;;;;;7.87;4.60;;;;;;;22.69;65.85;99366.22;4324814;33;34130;-82
2022/06/30 02:05:43;;;;;;;7.22;4.78;;;;;;;22.47;66.14;99370.19;4324608;33;35534;-83
2022/06/30 02:08:29;;;;;;;7.82;4.62;;;;;;;23.21;61.33;99374.94;4337616;33;35555;-82
2022/06/30 02:11:16;;;;;;;7.00;4.62;;;;;;;22.78;62.83;99363.81;4338038;33;35168;-82
2022/06/30 02:14:03;;;;;;;10.63;4.65;;;;;;;23.14;60.85;99369.37;4337204;33;35054;-81
2022/06/30 02:16:49;;;;;;;8.85;5.20;;;;;;;23.14;60.62;99361.00;4337005;33;34667;-82
2022/06/30 02:19:35;;;;;;;6.78;4.65;;;;;;;23.30;60.05;99364.12;4335954;33;34972;-81
2022/06/30 02:22:22;;;;;;;11.95;5.53;;;;;;;22.71;63.66;99368.59;4328157;33;34874;-81
2022/06/30 02:25:08;;;;;;;6.72;4.45;;;;;;;23.19;62.10;99366.16;4335857;33;34954;-81
2022/06/30 02:27:55;;;;;;;7.15;4.93;;;;;;;23.30;61.52;99366.13;4326102;33;35450;-81
2022/06/30 02:30:42;;;;;;;7.03;4.72;;;;;;;22.77;63.63;99361.41;4330059;33;36158;-81
2022/06/30 02:33:28;;;;;;;7.28;5.15;;;;;;;22.88;63.58;99367.78;4336466;33;34564;-81
2022/06/30 02:36:15;;;;;;;8.20;5.12;;;;;;;22.84;63.55;99367.78;4336002;33;34755;-82
2022/06/30 02:39:01;;;;;;;8.35;4.72;;;;;;;22.42;66.11;99371.38;4337147;33;36226;-82
2022/06/30 02:41:47;;;;;;;6.68;4.93;;;;;;;22.98;63.73;99380.97;4338764;33;34982;-82
2022/06/30 02:44:33;;;;;;;7.60;5.20;;;;;;;22.73;64.13;99367.00;4325641;33;34569;-81
2022/06/30 02:47:20;;;;;;;6.62;4.45;;;;;;;23.04;62.52;99359.00;4323212;33;34170;-82
2022/06/30 02:50:09;;;;;;;7.97;5.00;;;;;;;23.16;61.27;99355.00;4340115;33;35525;-81
2022/06/30 02:52:55;;;;;;;9.38;5.32;;;;;;;22.92;61.67;99365.00;4328306;33;35559;-82
2022/06/30 02:55:41;;;;;;;6.87;4.85;;;;;;;22.23;64.85;99364.19;4324446;33;35353;-82
2022/06/30 02:58:28;;;;;;;6.57;4.60;;;;;;;21.27;69.67;99350.66;4340044;33;34426;-82
2022/06/30 03:01:15;;;;;;;9.35;5.20;;;;;;;22.44;65.28;99361.41;4325675;33;35047;-82
2022/06/30 03:04:02;;;;;;;8.52;4.57;;;;;;;22.20;66.46;99360.22;4328677;33;35684;-83
2022/06/30 03:06:48;;;;;;;7.00;4.47;;;;;;;22.06;66.73;99362.13;4340226;33;34388;-82
2022/06/30 03:09:34;;;;;;;8.13;4.40;;;;;;;22.68;63.53;99370.19;4339545;33;35096;-81
2022/06/30 03:12:20;;;;;;;7.85;4.40;;;;;;;22.49;63.85;99373.41;4338594;33;35470;-82
2022/06/30 03:15:07;;;;;;;7.50;5.00;;;;;;;21.90;66.72;99370.84;4338979;33;34748;-82
2022/06/30 03:17:56;;;;;;;6.93;4.80;;;;;;;22.68;63.96;99382.19;4326097;33;34928;-82
2022/06/30 03:20:42;;;;;;;7.07;4.75;;;;;;;20.98;72.05;99377.56;4337356;33;34348;-82
2022/06/30 03:23:29;;;;;;;7.75;5.35;;;;;;;21.60;69.11;99390.66;4324180;33;34647;-82
2022/06/30 03:26:16;;;;;;;8.98;4.85;;;;;;;21.99;67.75;99382.44;4337385;33;35886;-81
2022/06/30 03:29:03;;;;;;;8.40;4.32;;;;;;;22.18;66.45;99392.50;4337320;33;34670;-82
2022/06/30 03:31:50;;;;;;;7.22;4.60;;;;;;;22.19;66.31;99394.06;4326550;33;33747;-82
2022/06/30 03:34:36;;;;;;;8.20;4.43;;;;;;;22.65;64.18;99396.94;4313688;33;35260;-81
2022/06/30 03:37:23;;;;;;;8.32;4.72;;;;;;;22.82;63.27;99406.50;4337627;33;33760;-82
2022/06/30 03:40:09;;;;;;;7.90;4.72;;;;;;;22.28;65.71;99402.84;4336177;33;34624;-82
2022/06/30 03:42:55;;;;;;;10.43;5.18;;;;;;;21.90;67.10;99402.34;4337628;33;33002;-81
2022/06/30 03:45:42;;;;;;;7.43;4.68;;;;;;;21.87;67.70;99405.13;4329033;33;35538;-82
2022/06/30 03:48:28;;;;;;;6.97;4.28;;;;;;;22.28;66.04;99397.28;4340655;33;34956;-82
2022/06/30 03:51:14;;;;;;;8.10;4.65;;;;;;;22.18;65.67;99398.06;4336737;33;34828;-81
2022/06/30 03:54:00;;;;;;;6.97;5.12;;;;;;;22.65;64.19;99415.66;4333963;33;34122;-82
2022/06/30 03:56:46;;;;;;;10.88;5.18;;;;;;;21.84;68.30;99412.28;4335494;33;34509;-81
2022/06/30 03:59:33;;;;;;;7.70;4.95;;;;;;;22.37;65.44;99417.25;4327351;33;34985;-82
2022/06/30 04:02:19;;;;;;;10.10;4.68;;;;;;;21.67;69.56;99411.00;4342113;33;35230;-82
2022/06/30 04:05:06;;;;;;;10.15;5.32;;;;;;;22.36;66.81;99415.63;4326175;33;34165;-82
2022/06/30 04:07:52;;;;;;;8.80;4.78;;;;;;;22.18;67.49;99421.19;4340611;33;34703;-84
2022/06/30 04:10:38;;;;;;;7.68;4.60;;;;;;;22.17;66.99;99422.37;4336101;33;35249;-84
2022/06/30 04:13:25;;;;;;;9.05;4.70;;;;;;;22.87;64.05;99428.44;4339374;33;34900;-84
2022/06/30 04:16:11;;;;;;;7.72;4.97;;;;;;;22.73;64.51;99419.28;4339818;33;34859;-84
2022/06/30 04:18:58;;;;;;;7.70;4.25;;;;;;;22.59;64.16;99420.84;4339279;33;35666;-84
2022/06/30 04:21:46;;;;;;;7.40;4.50;;;;;;;23.20;62.54;99418.06;4338605;33;34778;-85
2022/06/30 04:24:32;;;;;;;9.73;4.40;;;;;;;22.74;63.79;99413.28;4338553;33;34621;-84
2022/06/30 04:27:18;;;;;;;7.07;4.35;;;;;;;22.77;64.45;99406.91;4326640;33;34079;-85
2022/06/30 04:30:05;;;;;;;8.88;4.68;;;;;;;23.47;61.46;99407.22;4327774;33;34090;-85
2022/06/30 04:32:51;;;;;;;7.22;4.93;;;;;;;23.54;62.03;99414.81;4328874;33;34539;-84
2022/06/30 04:35:37;;;;;;;6.55;4.28;;;;;;;22.64;66.93;99419.66;4337744;33;35498;-84
2022/06/30 04:38:24;;;;;;;7.57;4.65;;;;;;;23.20;64.84;99420.88;4338566;33;33903;-85
2022/06/30 04:41:25;;;;;;;7.32;4.85;;;;;;;23.44;63.32;99421.22;4339111;33;34875;-84
2022/06/30 04:44:12;;;;;;;7.45;4.37;;;;;;;23.82;61.82;99421.50;4336533;33;35071;-85
2022/06/30 04:46:58;;;;;;;6.62;4.60;;;;;;;23.44;62.57;99421.22;4337949;33;34370;-85
2022/06/30 04:49:44;;;;;;;7.05;4.30;;;;;;;23.84;61.16;99419.13;4336480;33;34201;-85
2022/06/30 04:52:31;;;;;;;7.70;4.97;;;;;;;24.13;60.39;99414.97;4337154;33;36593;-85
2022/06/30 04:55:23;;;;;;;7.25;4.43;;;;;;;24.20;60.38;99412.13;4336733;33;34951;-83
2022/06/30 04:58:09;;;;;;;8.52;5.15;;;;;;;23.95;60.38;99417.06;4326983;33;35505;-85
2022/06/30 05:00:55;;;;;;;8.23;5.03;;;;;;;24.31;59.80;99406.47;4337570;33;34160;-84
2022/06/30 05:03:41;;;;;;;6.65;4.65;;;;;;;24.39;60.56;99416.44;4336151;32;35221;-85
2022/06/30 05:06:28;;;;;;;7.57;5.30;;;;;;;24.46;60.66;99407.22;4322792;32;34562;-84
2022/06/30 05:09:14;;;;;;;8.60;5.50;;;;;;;24.99;59.87;99411.59;4322475;33;36148;-85
2022/06/30 05:12:00;;;;;;;8.13;5.43;;;;;;;24.62;59.12;99406.69;4326745;33;34288;-84
2022/06/30 05:14:47;;;;;;;9.10;5.47;;;;;;;24.76;59.96;99408.56;4334631;33;34721;-83
2022/06/30 05:17:34;;;;;;;10.15;6.05;;;;;;;25.04;56.96;99405.50;4331743;33;34966;-84
2022/06/30 05:20:20;;;;;;;8.63;5.78;;;;;;;25.38;57.30;99395.59;4326733;33;34565;-85
2022/06/30 05:23:07;;;;;;;10.73;5.80;;;;;;;25.09;56.55;99410.69;4341367;33;34186;-85
2022/06/30 05:28:58;;;;;;;10.80;5.80;;;;;;;25.89;53.12;99411.44;4322361;33;34876;-81
2022/06/30 05:31:45;;;;;;;9.23;5.60;;;;;;;26.00;52.26;99416.94;4332707;32;34660;-86
2022/06/30 05:34:31;;;;;;;11.70;5.80;;;;;;;26.00;50.48;99414.13;4338059;33;34629;-86
2022/06/30 05:37:18;;;;;;;8.50;5.10;;;;;;;26.37;51.55;99418.03;4324946;33;34654;-85
2022/06/30 05:40:05;;;;;;;11.60;6.10;;;;;;;26.40;48.50;99405.94;4335432;33;35157;-82
2022/06/30 05:42:51;;;;;;;7.10;5.40;;;;;;;26.66;50.57;99412.78;4336621;33;179580;-85
2022/06/30 05:45:38;;;;;;;8.80;4.93;;;;;;;26.55;49.54;99409.34;4339831;33;34156;-84
2022/06/30 05:48:24;;;;;;;9.00;4.60;;;;;;;26.89;48.03;99421.22;4329108;33;35156;-83
2022/06/30 05:51:11;;;;;;;8.77;4.93;;;;;;;26.86;46.03;99416.47;4316890;33;35472;-81
2022/06/30 05:53:57;;;;;;;9.68;5.60;;;;;;;26.80;46.83;99412.56;4335869;33;34580;-83
2022/06/30 05:56:44;;;;;;;9.50;5.40;;;;;;;27.28;43.98;99413.38;4343579;33;34154;-83
2022/06/30 05:59:32;;;;;;;8.48;5.00;;;;;;;27.49;43.17;99412.16;4339639;33;35513;-84
2022/06/30 06:02:18;;;;;;;9.30;5.18;;;;;;;27.90;44.44;99411.75;4332734;33;35077;-84
2022/06/30 06:05:05;;;;;;;10.13;5.43;;;;;;;27.91;42.86;99404.91;4325550;33;35706;-86
2022/06/30 06:07:51;;;;;;;8.68;5.18;;;;;;;28.14;42.11;99418.06;4339813;33;34359;-84
2022/06/30 06:10:38;;;;;;;7.25;4.60;;;;;;;28.22;40.50;99413.87;4333731;32;35355;-83
2022/06/30 06:13:24;;;;;;;9.40;5.20;;;;;;;28.41;40.72;99408.63;4326498;33;35488;-84
2022/06/30 06:16:10;;;;;;;6.43;4.80;;;;;;;28.54;39.14;99412.38;4331042;33;34575;-83
2022/06/30 06:18:57;;;;;;;7.12;4.70;;;;;;;28.40;38.39;99418.31;4324135;33;33937;-83
2022/06/30 06:21:43;;;;;;;8.77;4.97;;;;;;;28.51;40.33;99407.59;4319458;33;35666;-83
2022/06/30 06:24:29;;;;;;;7.15;5.20;;;;;;;28.81;40.33;99408.50;4336609;33;34443;-82
2022/06/30 06:27:16;;;;;;;8.95;4.57;;;;;;;28.53;39.88;99407.97;4336523;33;34507;-82
2022/06/30 06:30:04;;;;;;;8.90;4.40;;;;;;;28.57;38.93;99417.13;4328918;32;34139;-81
2022/06/30 06:32:50;;;;;;;8.23;4.07;;;;;;;28.52;36.23;99414.84;4312972;33;35506;-81
2022/06/30 06:35:36;;;;;;;10.43;4.18;;;;;;;28.58;36.98;99417.94;4311392;33;34459;-82
2022/06/30 06:38:23;;;;;;;8.48;4.72;;;;;;;28.98;35.81;99412.91;4326030;32;35208;-82
2022/06/30 06:41:09;;;;;;;8.70;4.78;;;;;;;28.94;35.32;99403.72;4333191;32;34126;-86
2022/06/30 06:43:56;;;;;;;8.38;4.60;;;;;;;29.24;36.64;99404.59;4329791;33;35662;-84
2022/06/30 06:46:42;;;;;;;7.18;4.10;;;;;;;29.36;35.66;99409.50;4325466;33;35003;-84
2022/06/30 06:49:30;;;;;;;6.30;4.22;;;;;;;29.20;35.05;99403.91;4335077;32;34906;-83
2022/06/30 06:52:16;;;;;;;7.55;4.70;;;;;;;29.50;35.84;99400.66;4319812;32;33659;-84
2022/06/30 06:55:03;;;;;;;7.10;4.40;;;;;;;29.39;35.07;99391.69;4320291;33;34525;-86
2022/06/30 06:57:49;;;;;;;7.25;4.28;;;;;;;29.32;34.23;99397.53;4332220;33;34692;-84
2022/06/30 07:00:36;;;;;;;8.43;4.62;;;;;;;29.59;33.53;99395.12;4336735;33;34929;-88
2022/06/30 07:03:22;;;;;;;7.68;4.37;;;;;;;29.75;34.44;99387.88;4324858;33;34472;-87
2022/06/30 07:06:09;;;;;;;8.45;4.87;;;;;;;29.41;34.94;99400.50;4321787;33;34630;-85
2022/06/30 07:08:55;;;;;;;10.43;4.68;;;;;;;29.93;33.29;99393.78;4319340;32;34460;-84
2022/06/30 07:11:41;;;;;;;7.30;4.40;;;;;;;30.04;33.92;99401.94;4335909;33;33922;-86
2022/06/30 07:14:28;;;;;;;6.70;4.50;;;;;;;30.26;34.96;99402.12;4335394;33;34131;-85
2022/06/30 07:17:14;;;;;;;9.35;4.87;;;;;;;30.11;34.28;99392.44;4326557;33;34092;-85
2022/06/30 07:20:01;;;;;;;9.68;4.35;;;;;;;30.34;34.40;99395.00;4324463;33;34975;-86
2022/06/30 07:22:47;;;;;;;13.40;5.30;;;;;;;30.19;35.61;99396.66;4323116;33;34496;-83
2022/06/30 07:25:47;;;;;;;9.27;4.78;;;;;;;30.26;33.45;99393.66;4333466;33;34231;-85
2022/06/30 07:28:34;;;;;;;9.18;4.60;;;;;;;30.01;33.63;99385.91;4332405;33;35668;-82
2022/06/30 07:31:38;;;;;;;9.95;5.72;;;;;;;30.72;33.76;99382.88;4333728;33;35027;-81
2022/06/30 07:34:24;;;;;;;8.65;4.53;;;;;;;30.78;34.31;99381.03;4322417;33;36056;-82
2022/06/30 07:37:10;;;;;;;10.48;4.60;;;;;;;30.89;33.42;99386.38;4332308;33;34091;-82
2022/06/30 07:39:57;;;;;;;10.02;4.40;;;;;;;30.69;33.65;99375.28;4322956;33;34318;-82
2022/06/30 07:42:43;;;;;;;7.93;4.97;;;;;;;30.91;32.63;99379.00;4338619;33;35944;-82
2022/06/30 07:45:30;;;;;;;6.60;4.72;;;;;;;30.90;31.75;99380.25;4335853;33;34162;-82
2022/06/30 07:48:16;;;;;;;8.25;4.72;;;;;;;31.03;31.80;99383.06;4326082;33;33536;-83
2022/06/30 07:51:02;;;;;;;10.82;5.30;;;;;;;31.14;32.19;99383.47;4326454;33;35505;-82
2022/06/30 07:53:49;;;;;;;8.85;4.50;;;;;;;31.23;31.65;99377.09;4332468;33;34822;-83
2022/06/30 07:56:35;;;;;;;12.00;5.07;;;;;;;30.88;30.86;99373.44;4330339;33;35013;-83
2022/06/30 07:59:22;;;;;;;14.15;5.62;;;;;;;31.19;30.73;99373.59;4334900;33;34120;-84
2022/06/30 08:02:08;;;;;;;6.62;4.65;;;;;;;31.48;31.14;99376.22;4332348;33;34695;-87
2022/06/30 08:04:55;;;;;;;11.88;5.20;;;;;;;31.51;31.56;99371.69;4329643;33;36033;-86
2022/06/30 08:07:41;;;;;;;11.68;5.50;;;;;;;31.88;29.89;99374.72;4333975;33;35093;-85
2022/06/30 08:10:28;;;;;;;14.85;5.12;;;;;;;31.97;30.62;99378.44;4337143;33;34095;-86
2022/06/30 08:13:13;;;;;;;11.60;4.70;;;;;;;31.75;30.44;99378.44;4320719;33;35514;-81
2022/06/30 08:16:00;;;;;;;7.62;5.12;;;;;;;32.12;30.51;99373.00;4322855;33;34978;-82
2022/06/30 08:18:47;;;;;;;9.05;4.57;;;;;;;32.54;31.00;99366.91;4312489;33;34047;-85
2022/06/30 08:21:34;;;;;;;7.30;4.82;;;;;;;32.39;30.24;99366.69;4334741;33;34220;-82
2022/06/30 08:24:20;;;;;;;7.20;4.75;;;;;;;32.52;30.35;99369.41;4331279;33;35479;-87
2022/06/30 08:27:08;;;;;;;7.87;4.43;;;;;;;32.78;30.14;99369.94;4336712;33;34976;-86
2022/06/30 08:29:54;;;;;;;11.45;4.78;;;;;;;32.98;30.22;99369.50;4319225;33;34356;-84
2022/06/30 08:32:40;;;;;;;8.13;4.47;;;;;;;32.77;29.69;99364.75;4333578;33;34933;-84
2022/06/30 08:35:26;;;;;;;12.07;4.68;;;;;;;32.99;29.91;99365.44;4332940;33;34420;-84
2022/06/30 08:38:33;;;;;;;10.00;5.22;;;;;;;33.09;29.77;99360.56;4319299;33;35589;-84
2022/06/30 08:44:25;;;;;;;7.85;4.82;;;;;;;33.06;28.92;99359.44;4319909;33;33666;-84
2022/06/30 08:47:15;;;;;;;8.10;4.30;;;;;;;33.29;29.09;99349.50;4329917;33;33272;-83
2022/06/30 08:50:01;;;;;;;8.60;4.60;;;;;;;33.48;27.65;99350.28;4322153;33;33920;-83
2022/06/30 08:52:52;;;;;;;9.40;4.57;;;;;;;33.88;27.46;99343.59;4334014;33;34860;-83
2022/06/30 08:55:39;;;;;;;12.43;4.18;;;;;;;33.64;27.17;99339.88;4335165;33;34695;-81
2022/06/30 08:58:26;;;;;;;9.63;4.30;;;;;;;33.51;26.21;99342.88;4323187;33;34644;-85
2022/06/30 09:01:13;;;;;;;8.98;4.35;;;;;;;34.01;27.26;99352.72;4323970;33;34248;-84
2022/06/30 09:03:59;;;;;;;10.82;5.22;;;;;;;33.86;26.52;99348.97;4321912;33;34495;-86
2022/06/30 09:06:46;;;;;;;6.35;4.40;;;;;;;33.98;25.64;99350.84;4333023;33;33957;-84
2022/06/30 09:09:33;;;;;;;7.35;3.90;;;;;;;34.35;26.47;99352.75;4334262;33;34666;-83
2022/06/30 09:12:19;;;;;;;10.23;4.05;;;;;;;34.23;25.57;99351.69;4336158;33;35064;-83
2022/06/30 09:15:06;;;;;;;5.30;4.00;;;;;;;34.15;24.76;99344.78;4319664;33;34395;-84
2022/06/30 09:17:53;;;;;;;10.50;4.30;;;;;;;34.33;25.42;99336.19;4331659;33;35087;-83
2022/06/30 09:20:41;;;;;;;7.55;4.30;;;;;;;34.40;26.16;99338.66;4318800;33;35601;-84
2022/06/30 09:23:35;;;;;;;8.57;3.90;;;;;;;34.55;25.69;99346.47;4321574;33;34993;-80
2022/06/30 09:26:22;;;;;;;8.35;4.47;;;;;;;35.09;26.34;99342.53;4322980;33;34655;-83
2022/06/30 09:29:13;;;;;;;8.25;4.62;;;;;;;35.04;25.63;99346.03;4323805;33;34199;-82
2022/06/30 09:32:19;;;;;;;7.90;4.32;;;;;;;35.16;24.95;99344.22;4333103;33;35075;-81
2022/06/30 09:35:09;;;;;;;11.52;4.03;;;;;;;35.23;24.77;99345.91;4338584;33;34613;-82
2022/06/30 09:38:15;;;;;;;11.52;3.80;;;;;;;35.01;25.12;99340.50;4323660;33;33406;-81
2022/06/30 09:41:04;;;;;;;18.80;3.72;;;;;;;35.26;23.52;99339.22;4323258;33;35056;-82
2022/06/30 09:43:50;;;;;;;8.55;3.37;;;;;;;35.35;23.33;99331.41;4333459;33;35541;-82
2022/06/30 09:46:37;;;;;;;8.48;3.22;;;;;;;35.81;23.78;99328.09;4339577;33;34950;-76
2022/06/30 09:49:45;;;;;;;8.55;3.50;;;;;;;35.90;22.73;99323.56;4332702;33;34309;-77
2022/06/30 09:52:32;;;;;;;5.93;3.60;;;;;;;35.71;23.25;99312.38;4313874;33;34658;-77
2022/06/30 09:55:18;;;;;;;6.95;3.92;;;;;;;35.78;22.60;99311.97;4332721;33;35516;-76
2022/06/30 09:58:05;;;;;;;7.00;3.70;;;;;;;36.01;22.96;99323.75;4323809;33;34974;-77
2022/06/30 10:00:52;;;;;;;8.10;3.92;;;;;;;36.37;22.74;99316.00;4335303;33;34419;-77
2022/06/30 10:03:47;;;;;;;7.95;3.65;;;;;;;36.02;22.96;99319.59;4321479;33;34068;-77
2022/06/30 10:06:34;;;;;;;6.62;3.75;;;;;;;35.86;22.41;99318.03;4325921;33;34589;-77
2022/06/30 10:09:20;;;;;;;6.43;3.50;;;;;;;36.14;23.08;99321.38;4325480;33;35872;-78
2022/06/30 10:12:07;;;;;;;8.52;4.10;;;;;;;36.11;22.81;99308.09;4324638;33;35268;-78
2022/06/30 10:14:54;;;;;;;5.15;3.45;;;;;;;36.57;23.51;99310.34;4323569;33;34477;-76
2022/06/30 10:17:43;;;;;;;6.78;3.33;;;;;;;36.47;24.29;99303.19;4315758;33;34571;-77
2022/06/30 10:20:38;;;;;;;8.80;3.42;;;;;;;36.37;21.47;99308.22;4336278;33;35053;-77
2022/06/30 10:23:26;;;;;;;7.32;3.37;;;;;;;36.66;21.93;99298.81;4325797;33;34629;-76
2022/06/30 10:27:12;;;;;;;5.35;3.45;;;;;;;36.40;22.10;99295.03;4338355;33;33809;-77
2022/06/30 10:29:19;;;;;;;5.28;3.45;;;;;;;36.40;21.87;99292.19;4337351;33;34601;-79
2022/06/30 10:32:19;;;;;;;6.85;3.55;;;;;;;36.76;22.48;99301.53;4327220;32;34819;-80
2022/06/30 10:35:21;;;;;;;7.97;3.92;;;;;;;36.67;21.70;99291.03;4338673;33;34265;-77
2022/06/30 10:38:16;;;;;;;5.97;3.35;;;;;;;36.44;21.07;99292.78;4328300;33;34065;-77
2022/06/30 10:41:11;;;;;;;6.93;3.10;;;;;;;36.77;19.71;99289.59;4334196;33;34552;-76
2022/06/30 10:44:04;;;;;;;5.62;3.22;;;;;;;36.61;20.78;99296.66;4337117;32;36009;-77
2022/06/30 10:46:56;;;;;;;6.18;3.20;;;;;;;36.55;20.65;99292.97;4340911;33;34986;-77
2022/06/30 10:49:55;;;;;;;5.95;3.00;;;;;;;36.65;19.76;99282.19;4337669;33;35215;-78
2022/06/30 10:52:41;;;;;;;8.10;3.40;;;;;;;37.11;20.89;99290.78;4339111;33;34670;-80
2022/06/30 10:55:27;;;;;;;9.18;3.10;;;;;;;37.21;20.43;99287.78;4328195;33;36014;-77
2022/06/30 10:58:14;;;;;;;7.12;3.60;;;;;;;37.43;20.29;99278.63;4326748;33;34630;-76
2022/06/30 11:01:05;;;;;;;7.35;3.40;;;;;;;37.24;19.01;99286.78;4324492;33;34971;-79
2022/06/30 11:03:51;;;;;;;5.32;2.60;;;;;;;37.46;19.06;99278.44;4327365;33;34145;-80
2022/06/30 11:07:01;;;;;;;7.43;3.10;;;;;;;37.52;19.56;99276.44;4336807;33;34866;-79
2022/06/30 11:09:47;;;;;;;5.22;3.00;;;;;;;37.52;18.52;99276.44;4320247;33;35421;-81
2022/06/30 11:12:37;;;;;;;6.00;3.05;;;;;;;37.41;18.10;99264.88;4335450;33;33811;-80
2022/06/30 11:15:50;;;;;;;6.90;3.17;;;;;;;37.47;17.48;99270.63;4332258;33;34681;-81
2022/06/30 11:18:37;;;;;;;5.70;3.17;;;;;;;37.91;19.38;99267.41;4326028;33;36062;-80
2022/06/30 11:21:24;;;;;;;6.37;3.03;;;;;;;38.13;18.88;99261.06;4330044;33;35099;-78
2022/06/30 11:24:11;;;;;;;5.55;2.95;;;;;;;37.92;18.53;99265.31;4329965;33;34990;-79
2022/06/30 11:30:09;;;;;;;7.37;3.25;;;;;;;38.28;17.51;99255.16;4323700;33;35013;-79
2022/06/30 11:32:55;;;;;;;7.35;3.10;;;;;;;38.53;17.38;99241.25;4328207;33;34046;-80
2022/06/30 11:35:43;;;;;;;4.65;2.87;;;;;;;38.57;19.60;99244.66;4340795;33;34558;-78
2022/06/30 11:38:30;;;;;;;8.75;3.30;;;;;;;38.41;18.95;99246.94;4336346;33;34141;-80
2022/06/30 11:44:32;;;;;;;7.05;2.83;;;;;;;38.37;17.35;99245.59;4331933;33;34854;-79
2022/06/30 11:47:21;;;;;;;7.22;2.80;;;;;;;38.62;17.26;99238.97;4334707;33;34345;-82
2022/06/30 11:50:08;;;;;;;5.53;2.70;;;;;;;38.26;17.34;99223.44;4315621;33;34483;-80
2022/06/30 11:52:56;;;;;;;7.70;2.58;;;;;;;38.20;17.49;99229.13;4336125;33;35591;-81
2022/06/30 11:55:44;;;;;;;5.85;2.62;;;;;;;38.63;16.10;99234.81;4317778;33;34548;-80
2022/06/30 11:58:31;;;;;;;5.57;2.95;;;;;;;38.55;17.71;99227.22;4335203;33;33922;-81
2022/06/30 12:01:17;;;;;;;7.93;2.80;;;;;;;38.93;17.34;99225.78;4325047;33;34539;-81
2022/06/30 12:04:15;;;;;;;4.70;2.47;;;;;;;38.92;15.34;99222.16;4319992;33;35040;-81
2022/06/30 12:07:04;;;;;;;9.07;2.58;;;;;;;38.80;16.31;99217.69;4329171;33;34491;-83
2022/06/30 12:09:52;;;;;;;3.40;2.80;;;;;;;39.26;15.15;99219.34;4332972;33;34247;-80
2022/06/30 12:12:39;;;;;;;4.90;2.85;;;;;;;39.39;15.61;99215.97;4323851;33;34554;-80
2022/06/30 12:15:26;;;;;;;4.30;2.75;;;;;;;39.34;16.32;99220.41;4327430;33;35047;-80
2022/06/30 12:18:12;;;;;;;5.93;3.08;;;;;;;39.11;15.56;99227.41;4331288;33;33856;-80
2022/06/30 12:20:59;;;;;;;5.60;2.60;;;;;;;39.28;15.86;99218.84;4335344;33;34229;-76
2022/06/30 12:23:47;;;;;;;3.85;2.90;;;;;;;39.57;15.72;99208.94;4328474;33;34624;-80
2022/06/30 12:26:38;;;;;;;6.43;2.90;;;;;;;39.73;16.23;99224.56;4329683;33;35955;-77
2022/06/30 12:29:27;;;;;;;7.32;2.60;;;;;;;39.27;16.89;99209.44;4313724;33;34146;-78
2022/06/30 12:32:13;;;;;;;5.05;2.50;;;;;;;39.12;15.87;99212.56;4325792;33;34097;-76
2022/06/30 12:35:03;;;;;;;5.40;2.60;;;;;;;39.62;15.33;99210.22;4326038;33;33224;-77
2022/06/30 12:37:51;;;;;;;4.93;2.53;;;;;;;39.46;17.02;99208.97;4342448;33;34307;-78
2022/06/30 12:40:38;;;;;;;9.32;3.10;;;;;;;39.59;15.82;99206.31;4323021;33;35704;-78
2022/06/30 12:43:49;;;;;;;5.07;2.70;;;;;;;39.83;15.22;99205.03;4328801;33;34188;-78
2022/06/30 12:46:40;;;;;;;5.25;2.90;;;;;;;39.55;16.45;99194.34;4326969;33;34652;-78
2022/06/30 12:49:27;;;;;;;8.52;2.85;;;;;;;39.15;16.73;99193.53;4324969;33;35060;-78
2022/06/30 12:52:18;;;;;;;4.30;3.00;;;;;;;39.59;16.13;99192.00;4335134;33;35466;-76
2022/06/30 12:55:05;;;;;;;9.02;3.00;;;;;;;40.12;16.25;99198.69;4326965;33;32894;-81
2022/06/30 12:57:53;;;;;;;5.68;2.95;;;;;;;39.95;16.14;99200.84;4333571;33;34369;-80
2022/06/30 13:00:44;;;;;;;4.80;3.10;;;;;;;39.52;16.68;99181.06;4337608;33;34711;-77
2022/06/30 13:03:30;;;;;;;6.60;3.08;;;;;;;40.00;17.90;99203.69;4324777;33;35108;-79
2022/06/30 13:06:17;;;;;;;5.03;3.03;;;;;;;39.37;16.66;99186.31;4313341;33;34193;-76
2022/06/30 13:09:06;;;;;;;5.10;2.90;;;;;;;40.23;15.98;99186.44;4324749;33;35452;-80
2022/06/30 13:11:55;;;;;;;6.50;2.75;;;;;;;40.18;16.85;99185.09;4324518;33;36046;-80
2022/06/30 13:14:42;;;;;;;6.50;3.10;;;;;;;40.19;16.00;99180.16;4319237;33;35420;-79
2022/06/30 13:17:28;;;;;;;7.82;3.30;;;;;;;40.05;15.92;99182.03;4323224;32;34180;-82
2022/06/30 13:20:14;;;;;;;8.13;3.20;;;;;;;40.06;16.88;99186.47;4326560;33;34627;-78
2022/06/30 13:23:00;;;;;;;6.97;3.60;;;;;;;39.39;17.03;99180.81;4340932;33;35955;-79